This is the latest recevied weather packets stored in our database for station/object M0SDM. If no packets are shown the sender has not sent any weather packets the latest 10 day(s).
| Time | Temp. | Humidity | Pressure | Rain* | Wind** | Luminosity | Snow |
|---|---|---|---|---|---|---|---|
| 1778050521 | 6.67° C | 85% | 1014.6 hPa | 0 mm | - | - | - |
| 1778049621 | 6.67° C | 88% | 1014.2 hPa | 0 mm | - | - | - |
| 1778048721 | 5° C | 91% | 1014.2 hPa | 0 mm | - | - | - |
| 1778047821 | 4.44° C | 93% | 1014.3 hPa | 0 mm | - | - | - |
| 1778046921 | 4.44° C | 94% | 1014.3 hPa | 0 mm | - | - | - |
| 1778046021 | 3.89° C | 94% | 1014.1 hPa | 0 mm | - | - | - |
| 1778045121 | 3.89° C | 94% | 1014.2 hPa | 0 mm | - | - | - |
| 1778044221 | 3.89° C | 94% | 1013.9 hPa | 0 mm | - | - | - |
| 1778043321 | 3.89° C | 94% | 1013.9 hPa | 0 mm | - | - | - |
| 1778042421 | 3.89° C | 94% | 1013.8 hPa | 0 mm | - | - | - |
| 1778041521 | 4.44° C | 94% | 1013.9 hPa | 0 mm | - | - | - |
| 1778040621 | 4.44° C | 93% | 1014.2 hPa | 0 mm | - | - | - |
| 1778039721 | 5° C | 93% | 1014.2 hPa | 0 mm | - | - | - |
| 1778038821 | 5° C | 92% | 1013.9 hPa | 0 mm | - | - | - |
| 1778037921 | 5.56° C | 91% | 1013.9 hPa | 0 mm | - | - | - |
| 1778037021 | 6.11° C | 91% | 1013.9 hPa | 0 mm | - | - | - |
| 1778036121 | 6.11° C | 90% | 1013.8 hPa | 0 mm | - | - | - |
| 1778035222 | 6.11° C | 90% | 1014.1 hPa | 0 mm | - | - | - |
| 1778034321 | 6.11° C | 90% | 1014.1 hPa | 0 mm | - | - | - |
| 1778033422 | 6.11° C | 89% | 1014.1 hPa | 0 mm | - | - | - |
| 1778032521 | 6.11° C | 89% | 1014.1 hPa | 0 mm | - | - | - |
| 1778031621 | 6.67° C | 88% | 1014.3 hPa | 0 mm | - | - | - |
| 1778030721 | 6.67° C | 88% | 1014.2 hPa | 0 mm | - | - | - |
| 1778029822 | 6.67° C | 86% | 1014.1 hPa | 0 mm | - | - | - |
| 1778028921 | 6.67° C | 86% | 1014.2 hPa | 0 mm | - | - | - |
* Rain latest hour (hover to see other rain measurements)
** Current wind speed in m/s (hover to see current wind gust speed)